Time;durP1;ratioP1;P1;durP2;ratioP2;P2;SDS_P1;SDS_P2;PMS_P1;PMS_P2;Temp;Humidity;BMP_temperature;BMP_pressure;BME280_temperature;BME280_humidity;BME280_pressure;Samples;Min_cycle;Max_cycle;Signal;HPM_P1;HPM_P2
2022/06/28 00:01:13;;;;;;;4.40;1.97;;;20.30;95.00;;;;;;21092000;28;20220;-71
2022/06/28 00:11:17;;;;;;;4.03;2.00;;;20.30;94.60;;;;;;21090861;28;20235;-69
2022/06/28 00:21:21;;;;;;;4.07;2.30;;;20.10;94.70;;;;;;21090101;28;20625;-68
2022/06/28 00:31:25;;;;;;;4.07;2.27;;;19.90;94.90;;;;;;21088493;28;20633;-71
2022/06/28 00:41:27;;;;;;;4.57;2.37;;;19.90;95.10;;;;;;21088289;28;20228;-74
2022/06/28 00:51:29;;;;;;;3.90;2.23;;;19.80;95.00;;;;;;21087765;28;20697;-75
2022/06/28 01:01:31;;;;;;;9.00;2.50;;;19.80;95.10;;;;;;21087411;28;20234;-69
2022/06/28 01:11:33;;;;;;;5.33;2.53;;;19.70;95.40;;;;;;21086110;28;20240;-69
2022/06/28 01:21:36;;;;;;;5.17;2.33;;;19.50;95.80;;;;;;21085174;28;20307;-71
2022/06/28 01:31:39;;;;;;;4.20;2.60;;;19.40;96.10;;;;;;21084225;28;20280;-69
2022/06/28 01:41:43;;;;;;;3.43;2.57;;;19.20;96.10;;;;;;21065706;28;20238;-71
2022/06/28 01:51:45;;;;;;;4.47;2.20;;;19.10;96.50;;;;;;21083010;28;20292;-69
2022/06/28 02:01:46;;;;;;;4.43;2.10;;;19.00;96.00;;;;;;21082151;28;20219;-69
2022/06/28 02:11:49;;;;;;;9.70;2.30;;;19.00;96.00;;;;;;21081605;28;20234;-69
2022/06/28 02:21:50;;;;;;;4.30;1.80;;;19.00;95.60;;;;;;21081223;28;20265;-69
2022/06/28 02:31:52;;;;;;;6.80;2.00;;;18.80;95.30;;;;;;21081221;28;20237;-67
2022/06/28 02:41:55;;;;;;;3.10;1.80;;;18.70;94.60;;;;;;21080703;28;20234;-71
2022/06/28 02:51:57;;;;;;;4.23;1.87;;;18.60;95.00;;;;;;21088085;28;20694;-70
2022/06/28 03:01:58;;;;;;;7.37;1.83;;;18.50;94.60;;;;;;21090762;28;20206;-67
2022/06/28 03:12:00;;;;;;;3.30;1.70;;;18.30;94.30;;;;;;21060746;28;20239;-69
2022/06/28 03:22:02;;;;;;;3.53;1.50;;;18.20;94.30;;;;;;21077923;28;20252;-68
2022/06/28 03:32:04;;;;;;;6.97;2.10;;;18.20;94.30;;;;;;21077598;28;20282;-68
2022/06/28 03:42:07;;;;;;;6.00;2.17;;;18.00;94.40;;;;;;21077468;28;20701;-70
2022/06/28 03:52:09;;;;;;;4.53;2.30;;;17.90;94.70;;;;;;21077009;28;20244;-68
2022/06/28 04:02:11;;;;;;;4.87;2.73;;;17.70;94.80;;;;;;21076596;28;20214;-68
2022/06/28 04:12:13;;;;;;;4.57;2.80;;;17.80;94.90;;;;;;21093408;28;20750;-69
2022/06/28 04:22:15;;;;;;;5.33;2.53;;;17.70;94.90;;;;;;21090883;28;20209;-67
2022/06/28 04:32:16;;;;;;;9.20;3.30;;;17.90;94.90;;;;;;21090198;28;20241;-71
2022/06/28 04:42:18;;;;;;;5.83;2.10;;;17.80;94.70;;;;;;21089358;28;20273;-74
2022/06/28 04:52:20;;;;;;;5.93;2.07;;;17.90;94.50;;;;;;21088739;28;20234;-77
2022/06/28 05:02:22;;;;;;;11.53;3.00;;;18.00;93.80;;;;;;21087514;28;20202;-77
2022/06/28 05:12:24;;;;;;;11.27;2.47;;;18.00;93.30;;;;;;21086226;28;20647;-75
2022/06/28 05:22:26;;;;;;;3.57;1.73;;;18.10;93.20;;;;;;21084477;28;20209;-78
2022/06/28 05:32:29;;;;;;;5.73;2.20;;;18.20;92.70;;;;;;21082939;28;20224;-65
2022/06/28 05:42:30;;;;;;;8.37;2.10;;;18.50;92.60;;;;;;21064928;28;20345;-69
2022/06/28 05:52:32;;;;;;;4.43;2.20;;;18.70;92.20;;;;;;21081956;28;20254;-68
2022/06/28 06:02:35;;;;;;;3.90;1.90;;;18.80;92.10;;;;;;21080153;28;20208;-64
2022/06/28 06:12:38;;;;;;;6.20;2.40;;;19.00;92.00;;;;;;21079172;28;20263;-65
2022/06/28 06:22:40;;;;;;;7.63;2.23;;;19.30;91.80;;;;;;21079911;28;20663;-66
2022/06/28 06:32:42;;;;;;;3.93;1.60;;;19.50;91.50;;;;;;21079348;28;20277;-66
2022/06/28 06:42:44;;;;;;;3.07;2.30;;;19.60;91.10;;;;;;21061491;28;20232;-71
2022/06/28 06:52:46;;;;;;;4.60;2.50;;;19.80;90.60;;;;;;21077726;28;20264;-69
2022/06/28 07:02:48;;;;;;;2.80;1.83;;;20.00;90.40;;;;;;21077341;28;20206;-70
2022/06/28 07:12:51;;;;;;;9.73;2.03;;;20.20;89.70;;;;;;21084538;28;20243;-65
2022/06/28 07:22:52;;;;;;;2.33;1.40;;;20.50;89.00;;;;;;21075969;28;20207;-67
2022/06/28 07:32:54;;;;;;;2.43;1.50;;;20.80;87.20;;;;;;21076474;28;20588;-68
2022/06/28 07:42:56;;;;;;;2.50;1.57;;;20.90;84.50;;;;;;21087487;28;20286;-71
2022/06/28 07:53:01;;;;;;;3.20;1.20;;;21.20;81.10;;;;;;21091652;28;20242;-69
2022/06/28 08:03:03;;;;;;;4.10;1.30;;;21.40;74.30;;;;;;21090455;28;20256;-71
2022/06/28 08:13:05;;;;;;;4.90;1.80;;;21.70;65.40;;;;;;21091307;28;20705;-66
2022/06/28 08:23:06;;;;;;;9.73;3.60;;;21.80;60.40;;;;;;21090312;28;20211;-66
2022/06/28 08:33:09;;;;;;;1.87;1.33;;;22.00;59.20;;;;;;21088437;28;20275;-67
2022/06/28 08:43:10;;;;;;;4.80;2.17;;;22.20;56.70;;;;;;21088524;28;20230;-72
2022/06/28 08:53:13;;;;;;;7.17;1.20;;;22.40;56.20;;;;;;21068350;28;20338;-67
2022/06/28 09:03:18;;;;;;;4.10;1.80;;;22.60;53.80;;;;;;21086603;28;20202;-69
2022/06/28 09:13:21;;;;;;;3.53;1.03;;;22.50;53.60;;;;;;21089444;28;20275;-69
2022/06/28 09:23:25;;;;;;;2.73;1.00;;;22.70;53.60;;;;;;21094088;28;20207;-68
2022/06/28 09:33:27;;;;;;;1.90;1.43;;;22.70;53.20;;;;;;21083860;28;20265;-69
2022/06/28 09:43:33;;;;;;;3.43;2.47;;;23.10;51.90;;;;;;21082899;28;20233;-69
2022/06/28 09:53:43;;;;;;;2.27;1.00;;;23.40;50.30;;;;;;21082593;28;20697;-70
2022/06/28 10:04:05;;;;;;;3.10;1.30;;;23.60;49.10;;;;;;21081341;28;20202;-70
2022/06/28 10:25:12;;;;;;;24.37;6.00;;;24.10;48.60;;;;;;21080104;28;20207;-76
2022/06/28 10:35:32;;;;;;;5.23;2.23;;;24.30;49.00;;;;;;20986419;28;20238;-65
2022/06/28 10:46:06;;;;;;;11.77;3.63;;;24.40;47.80;;;;;;21080226;28;20315;-74
2022/06/28 10:56:10;;;;;;;8.40;2.53;;;24.50;47.60;;;;;;21079770;28;20320;-73
2022/06/28 11:06:21;;;;;;;5.90;1.10;;;24.50;47.00;;;;;;21077680;28;20205;-67
2022/06/28 11:16:42;;;;;;;2.73;1.00;;;24.80;46.30;;;;;;21088421;28;20584;-72
2022/06/28 11:37:08;;;;;;;1.27;0.90;;;24.90;44.50;;;;;;21140972;28;20236;-69
2022/06/28 11:47:10;;;;;;;14.27;7.77;;;25.10;44.20;;;;;;21177430;28;20261;-69
2022/06/28 11:57:15;;;;;;;2.93;1.13;;;25.30;43.90;;;;;;21180803;28;20240;-69
2022/06/28 12:07:50;;;;;;;1.10;0.80;;;25.50;44.00;;;;;;21101213;28;20229;-66
2022/06/28 12:17:52;;;;;;;1.93;0.97;;;25.80;43.90;;;;;;21089594;28;20257;-67
2022/06/28 12:27:54;;;;;;;1.00;0.90;;;26.20;43.20;;;;;;21088413;28;20221;-68
2022/06/28 12:37:56;;;;;;;4.37;1.10;;;26.30;42.50;;;;;;21087625;28;20234;-67
2022/06/28 12:47:58;;;;;;;34.27;19.23;;;26.30;42.10;;;;;;21089045;28;20358;-68
2022/06/28 12:57:59;;;;;;;2.10;1.30;;;26.40;41.90;;;;;;21087822;28;20242;-69
2022/06/28 13:08:03;;;;;;;3.13;1.17;;;26.40;41.90;;;;;;21085984;28;20268;-68
2022/06/28 13:18:04;;;;;;;1.40;1.00;;;26.40;42.10;;;;;;21085595;28;20742;-68
2022/06/28 13:28:07;;;;;;;5.77;0.90;;;26.40;41.60;;;;;;21086286;28;20214;-68
2022/06/28 13:38:11;;;;;;;3.67;1.07;;;26.40;41.50;;;;;;21083251;28;20206;-69
2022/06/28 13:48:12;;;;;;;1.30;0.90;;;26.50;41.20;;;;;;21083424;28;20239;-67
2022/06/28 13:58:14;;;;;;;5.60;1.40;;;26.60;40.70;;;;;;21083056;28;20661;-68
2022/06/28 14:08:16;;;;;;;1.33;1.00;;;26.70;40.00;;;;;;21084739;28;20290;-67
2022/06/28 14:18:19;;;;;;;1.73;1.00;;;26.80;39.80;;;;;;21083940;28;20669;-69
2022/06/28 14:28:20;;;;;;;1.10;0.83;;;26.90;39.10;;;;;;21098488;28;20264;-70
2022/06/28 14:38:32;;;;;;;2.83;1.00;;;27.00;38.30;;;;;;21081839;28;20647;-67
2022/06/28 14:48:34;;;;;;;1.53;1.00;;;27.10;38.20;;;;;;21095337;28;20313;-75
2022/06/28 14:58:36;;;;;;;6.10;2.77;;;27.10;38.40;;;;;;21100773;28;20277;-69
2022/06/28 15:08:38;;;;;;;4.50;1.27;;;27.20;39.20;;;;;;21103559;28;20234;-69
2022/06/28 15:18:40;;;;;;;1.70;1.30;;;27.70;38.90;;;;;;21095434;28;20214;-71
2022/06/28 15:39:02;;;;;;;1.25;0.90;;;27.90;38.20;;;;;;21094324;28;20576;-70
2022/06/28 15:49:04;;;;;;;1.63;1.10;;;27.70;38.40;;;;;;21100004;28;20238;-70
2022/06/28 15:59:06;;;;;;;0.80;0.80;;;28.00;38.20;;;;;;21093849;28;20285;-69
2022/06/28 16:09:09;;;;;;;3.33;1.10;;;29.00;37.40;;;;;;21094526;28;20236;-70
2022/06/28 16:19:10;;;;;;;8.77;2.83;;;30.00;36.50;;;;;;21094041;28;20206;-64
2022/06/28 16:29:32;;;;;;;3.00;1.52;;;30.20;38.20;;;;;;21106201;28;20229;-70
2022/06/28 16:39:34;;;;;;;16.35;4.18;;;29.00;38.90;;;;;;21098106;28;20293;-69
2022/06/28 16:49:35;;;;;;;6.32;2.83;;;28.10;40.40;;;;;;21140795;28;20279;-71
2022/06/28 16:59:37;;;;;;;7.07;3.10;;;27.60;41.80;;;;;;21173638;28;20668;-66
2022/06/28 17:09:39;;;;;;;6.57;1.83;;;27.40;42.20;;;;;;21096780;28;20694;-65
2022/06/28 17:19:43;;;;;;;3.77;1.40;;;27.20;41.40;;;;;;21086407;28;20210;-68
2022/06/28 17:29:45;;;;;;;1.57;1.20;;;27.00;40.40;;;;;;21083423;28;20234;-67
2022/06/28 17:39:47;;;;;;;4.60;2.27;;;26.80;39.60;;;;;;21087309;28;20714;-70
2022/06/28 17:49:55;;;;;;;6.90;1.80;;;26.60;40.90;;;;;;21108275;28;20264;-62
2022/06/28 17:59:56;;;;;;;2.93;1.30;;;26.40;41.40;;;;;;21090967;28;20203;-74
2022/06/28 18:09:58;;;;;;;6.05;1.50;;;26.40;41.40;;;;;;21086920;28;20460;-74
2022/06/28 18:20:00;;;;;;;1.53;1.20;;;26.70;41.20;;;;;;21081080;28;20202;-71
2022/06/28 18:30:03;;;;;;;4.40;1.83;;;26.30;42.10;;;;;;21078435;28;20292;-64
2022/06/28 18:40:05;;;;;;;3.10;1.70;;;26.00;43.20;;;;;;21087482;28;20312;-63
2022/06/28 18:50:09;;;;;;;5.57;1.40;;;25.80;44.60;;;;;;21045590;28;20632;-67
2022/06/28 19:00:11;;;;;;;7.33;2.20;;;25.60;45.30;;;;;;21080243;28;20542;-68
2022/06/28 19:10:12;;;;;;;4.80;2.13;;;25.30;46.40;;;;;;21076398;28;20230;-69
2022/06/28 19:20:14;;;;;;;4.07;1.80;;;25.20;47.10;;;;;;21078182;28;20202;-69
2022/06/28 19:30:16;;;;;;;8.43;2.10;;;25.10;47.70;;;;;;21088280;28;20282;-67
2022/06/28 19:40:18;;;;;;;14.60;5.23;;;24.90;48.50;;;;;;21115357;28;20705;-69
2022/06/28 19:50:20;;;;;;;5.73;2.33;;;24.70;50.00;;;;;;21097059;28;20226;-65
2022/06/28 20:00:22;;;;;;;6.10;2.37;;;24.40;51.20;;;;;;21112329;28;20199;-76
2022/06/28 20:10:25;;;;;;;6.37;2.20;;;24.20;51.90;;;;;;21091637;28;20226;-75
2022/06/28 20:20:27;;;;;;;5.57;2.07;;;24.00;53.20;;;;;;21090962;28;20724;-75
2022/06/28 20:30:31;;;;;;;4.77;2.50;;;23.80;53.60;;;;;;21098622;28;20226;-75
2022/06/28 20:40:33;;;;;;;4.57;2.00;;;23.70;54.10;;;;;;21174320;28;20275;-73
2022/06/28 20:50:35;;;;;;;3.93;1.90;;;23.50;54.90;;;;;;21172804;28;20248;-71
2022/06/28 21:00:38;;;;;;;5.07;2.53;;;23.30;55.70;;;;;;21050738;28;20603;-75
2022/06/28 21:10:44;;;;;;;3.87;2.40;;;23.20;56.50;;;;;;21002521;28;20288;-73
2022/06/28 21:20:46;;;;;;;2.67;1.87;;;23.10;57.20;;;;;;21002358;28;20253;-73
2022/06/28 21:30:48;;;;;;;3.17;2.13;;;23.00;57.50;;;;;;21001649;28;20713;-70
2022/06/28 21:40:50;;;;;;;3.47;2.07;;;22.80;57.90;;;;;;21001050;28;20223;-68
2022/06/28 21:50:52;;;;;;;4.20;2.10;;;22.70;58.80;;;;;;21000176;28;20246;-68
2022/06/28 22:00:54;;;;;;;2.50;1.90;;;22.50;59.00;;;;;;20999669;28;20200;-70
2022/06/28 22:10:56;;;;;;;3.90;2.20;;;22.40;59.30;;;;;;20982794;28;20257;-66
2022/06/28 22:20:58;;;;;;;6.67;1.60;;;22.20;59.80;;;;;;20998550;28;20211;-73
2022/06/28 22:30:59;;;;;;;3.43;1.53;;;22.10;60.80;;;;;;20997193;28;20603;-71
2022/06/28 22:41:01;;;;;;;4.37;2.00;;;21.90;61.00;;;;;;20996292;28;20322;-71
2022/06/28 22:51:03;;;;;;;5.37;1.97;;;21.80;61.60;;;;;;20995833;28;20321;-72
2022/06/28 23:01:05;;;;;;;2.77;1.80;;;21.70;62.10;;;;;;20995971;28;20706;-71
2022/06/28 23:11:07;;;;;;;5.03;2.00;;;21.60;62.10;;;;;;20994654;28;20235;-68
2022/06/28 23:21:09;;;;;;;2.53;1.80;;;21.70;61.80;;;;;;20994624;28;20235;-68
2022/06/28 23:31:10;;;;;;;3.27;1.97;;;21.60;61.80;;;;;;20994347;28;20697;-73
2022/06/28 23:41:12;;;;;;;2.60;1.83;;;21.60;62.70;;;;;;20993932;28;20227;-71
2022/06/28 23:51:14;;;;;;;5.50;2.20;;;21.60;63.10;;;;;;20993957;28;20281;-69
